createdAt,value
2022-08-22T00:02:26.238Z,102495.06
2022-08-22T00:03:09.681Z,102329.16
2022-08-22T00:05:01.871Z,102495.06
2022-08-22T00:07:45.436Z,102491.50
2022-08-22T00:10:25.525Z,102480.94
2022-08-22T00:12:58.519Z,102476.63
2022-08-22T00:15:43.333Z,102470.34
2022-08-22T00:18:16.905Z,102472.91
2022-08-22T00:20:50.311Z,102476.41
2022-08-22T00:23:26.272Z,102477.31
2022-08-22T00:26:02.974Z,102477.31
2022-08-22T00:28:35.625Z,102473.91
2022-08-22T00:31:14.742Z,102465.22
2022-08-22T00:33:49.056Z,102467.09
2022-08-22T00:36:25.042Z,102466.22
2022-08-22T00:38:59.800Z,102459.25
2022-08-22T00:41:45.520Z,102461.88
2022-08-22T00:44:47.647Z,102466.13
2022-08-22T00:47:27.602Z,102459.09
2022-08-22T00:50:20.844Z,102439.63
2022-08-22T00:53:24.393Z,102435.22
2022-08-22T00:56:04.274Z,102430.94
2022-08-22T00:59:12.014Z,102430.09
2022-08-22T01:01:58.506Z,102423.28
2022-08-22T01:04:53.380Z,102421.56
2022-08-22T01:07:39.987Z,102418.16
2022-08-22T01:10:24.410Z,102420.88
2022-08-22T01:13:12.686Z,102413.91
2022-08-22T01:15:44.018Z,102407.00
2022-08-22T01:18:37.525Z,102409.66
2022-08-22T01:21:52.806Z,102406.16
2022-08-22T01:25:14.486Z,102396.47
2022-08-22T01:28:29.093Z,102378.06
2022-08-22T01:31:33.329Z,102385.31
2022-08-22T01:35:09.090Z,102387.16
2022-08-22T01:37:57.960Z,102392.56
2022-08-22T01:41:03.031Z,102382.13
2022-08-22T01:43:59.181Z,102391.03
2022-08-22T01:46:37.248Z,102385.78
2022-08-22T01:49:18.323Z,102387.63
2022-08-22T01:51:51.362Z,102389.47
2022-08-22T01:54:31.015Z,102386.06
2022-08-22T01:57:03.315Z,102391.50
2022-08-22T01:59:42.179Z,102395.09
2022-08-22T02:02:35.015Z,102421.44
2022-08-22T02:05:10.529Z,102425.69
2022-08-22T02:07:49.365Z,102427.31
2022-08-22T02:10:24.244Z,102436.91
2022-08-22T02:13:04.990Z,102453.53
2022-08-22T02:15:46.842Z,102453.34
2022-08-22T02:18:24.243Z,102446.28
2022-08-22T02:21:00.468Z,102447.09
2022-08-22T02:23:48.043Z,102438.31
2022-08-22T02:26:22.711Z,102434.75
2022-08-22T02:28:59.121Z,102423.28
2022-08-22T02:31:38.294Z,102436.47
2022-08-22T02:34:24.427Z,102451.25
2022-08-22T02:36:58.375Z,102452.13
2022-08-22T02:39:35.626Z,102446.69
2022-08-22T02:42:18.184Z,102441.28
2022-08-22T02:44:57.945Z,102442.97
2022-08-22T02:47:33.787Z,102424.50
2022-08-22T02:50:12.778Z,102426.22
2022-08-22T02:52:53.782Z,102426.22
2022-08-22T02:55:34.541Z,102435.84
2022-08-22T02:58:09.766Z,102438.41
2022-08-22T03:00:48.857Z,102439.25
2022-08-22T03:03:22.340Z,102441.88
2022-08-22T03:06:01.007Z,102448.03
2022-08-22T03:08:32.288Z,102444.44
2022-08-22T03:11:10.093Z,102438.25
2022-08-22T03:13:51.402Z,102449.66
2022-08-22T03:16:27.424Z,102455.69
2022-08-22T03:19:00.228Z,102458.31
2022-08-22T03:21:33.861Z,102457.31
2022-08-22T03:24:09.193Z,102458.16
2022-08-22T03:26:52.307Z,102458.16
2022-08-22T03:29:25.903Z,102456.38
2022-08-22T03:32:10.443Z,102461.56
2022-08-22T03:34:39.237Z,102466.84
2022-08-22T03:37:16.802Z,102463.28
2022-08-22T03:39:56.141Z,102465.88
2022-08-22T03:42:52.026Z,102475.50
2022-08-22T03:45:43.016Z,102477.28
2022-08-22T03:49:01.663Z,102479.91
2022-08-22T03:51:47.549Z,102477.28
2022-08-22T03:54:45.546Z,102486.91
2022-08-22T03:57:44.360Z,102484.25
2022-08-22T04:00:30.212Z,102491.31
2022-08-22T04:03:21.286Z,102498.38
2022-08-22T04:06:31.319Z,102511.44
2022-08-22T04:09:45.555Z,102509.69
2022-08-22T04:12:44.551Z,102527.28
2022-08-22T04:15:39.896Z,102541.31
2022-08-22T04:18:33.304Z,102550.94
2022-08-22T04:21:17.618Z,102560.63
2022-08-22T04:24:13.788Z,102573.72
2022-08-22T04:26:48.228Z,102580.72
2022-08-22T04:29:22.461Z,102587.72
2022-08-22T04:31:57.667Z,102602.59
2022-08-22T04:34:35.397Z,102611.38
2022-08-22T04:37:11.152Z,102613.09
2022-08-22T04:39:47.594Z,102613.09
2022-08-22T04:42:36.670Z,102620.03
2022-08-22T04:45:11.110Z,102622.63
2022-08-22T04:47:42.982Z,102617.34
2022-08-22T04:50:22.076Z,102620.91
2022-08-22T04:53:15.032Z,102634.03
2022-08-22T04:55:54.819Z,102635.88
2022-08-22T04:58:41.747Z,102647.28
2022-08-22T05:01:17.762Z,102656.97
2022-08-22T05:03:53.869Z,102673.66
2022-08-22T05:06:28.645Z,102684.19
2022-08-22T05:09:00.659Z,102698.25
2022-08-22T05:11:31.460Z,102707.94
2022-08-22T05:14:04.168Z,102711.53
2022-08-22T05:16:35.706Z,102733.38
2022-08-22T05:19:12.030Z,102741.31
2022-08-22T05:21:45.356Z,102743.84
2022-08-22T05:24:20.794Z,102756.34
2022-08-22T05:26:54.456Z,102776.59
2022-08-22T05:29:27.541Z,102785.41
2022-08-22T05:31:59.851Z,102799.47
2022-08-22T05:34:33.783Z,102805.66
2022-08-22T05:37:11.290Z,102840.88
2022-08-22T05:39:42.091Z,102861.13
2022-08-22T05:42:17.421Z,102880.44
2022-08-22T05:44:45.545Z,102905.03
2022-08-22T05:47:22.782Z,102926.97
2022-08-22T05:50:00.016Z,102939.25
2022-08-22T05:52:52.563Z,102954.16
2022-08-22T05:55:27.852Z,102960.34
2022-08-22T05:58:13.936Z,102982.34
2022-08-22T06:00:45.134Z,102991.22
2022-08-22T06:03:19.853Z,102997.34
2022-08-22T06:05:53.304Z,103007.81
2022-08-22T06:08:26.368Z,103017.44
2022-08-22T06:10:59.226Z,103021.78
2022-08-22T06:13:37.224Z,103024.41
2022-08-22T06:16:14.451Z,103028.66
2022-08-22T06:18:44.972Z,103038.13
2022-08-22T06:21:18.949Z,103027.47
2022-08-22T06:23:56.494Z,103018.69
2022-08-22T06:26:29.128Z,103011.72
2022-08-22T06:29:00.995Z,103009.97
2022-08-22T06:31:32.174Z,102994.16
2022-08-22T06:34:04.827Z,102982.75
2022-08-22T06:36:35.910Z,102972.19
2022-08-22T06:39:18.622Z,102959.81
2022-08-22T06:41:51.808Z,102954.47
2022-08-22T06:44:23.437Z,102951.69
2022-08-22T06:46:55.192Z,102936.63
2022-08-22T06:49:25.972Z,102917.19
2022-08-22T06:51:58.709Z,102900.28
2022-08-22T06:54:34.480Z,102870.13
2022-08-22T06:57:05.072Z,102835.63
2022-08-22T06:59:38.313Z,102801.94
2022-08-22T07:02:17.389Z,102764.84
2022-08-22T07:04:50.143Z,102699.63
2022-08-22T07:07:21.223Z,102667.66
2022-08-22T07:09:55.489Z,102613.81
2022-08-22T07:12:27.961Z,102581.88
2022-08-22T07:15:01.771Z,102560.63
2022-08-22T07:17:35.891Z,102512.09
2022-08-22T07:20:21.523Z,102494.53
2022-08-22T07:22:56.035Z,102457.56
2022-08-22T07:25:26.509Z,102402.13
2022-08-22T07:28:16.160Z,102358.13
2022-08-22T07:30:56.103Z,102268.09
2022-08-22T07:33:40.310Z,102198.34
2022-08-22T07:36:23.235Z,102154.03
2022-08-22T07:39:04.519Z,102107.06
2022-08-22T07:41:45.587Z,102084.59
2022-08-22T07:44:18.527Z,102075.34
2022-08-22T07:46:56.354Z,102071.47
2022-08-22T07:49:28.451Z,102054.69
2022-08-22T07:51:59.996Z,102062.81
2022-08-22T07:54:37.537Z,102069.13
2022-08-22T07:57:10.778Z,102073.75
2022-08-22T07:59:47.258Z,102077.41
2022-08-22T08:02:17.761Z,102068.75
2022-08-22T08:04:49.517Z,102059.97
2022-08-22T08:07:18.920Z,102068.75
2022-08-22T08:09:52.309Z,102076.69
2022-08-22T08:12:33.992Z,102074.16
2022-08-22T08:15:05.395Z,102061.00
2022-08-22T08:17:36.598Z,102051.31
2022-08-22T08:20:09.058Z,102049.59
2022-08-22T08:22:38.726Z,102053.19
2022-08-22T08:25:09.247Z,102055.06
2022-08-22T08:27:57.630Z,102050.63
2022-08-22T08:30:37.749Z,102049.59
2022-08-22T08:33:25.656Z,102053.19
2022-08-22T08:36:02.433Z,102047.06
2022-08-22T08:38:34.276Z,102047.94
2022-08-22T08:41:31.487Z,102043.50
2022-08-22T08:44:08.808Z,102030.19
2022-08-22T08:47:05.445Z,102023.00
2022-08-22T08:49:50.554Z,102019.44
2022-08-22T08:52:44.994Z,102018.41
2022-08-22T08:55:27.565Z,102012.06
2022-08-22T08:58:17.728Z,102013.59
2022-08-22T09:00:52.362Z,102016.97
2022-08-22T09:03:40.130Z,102013.19
2022-08-22T09:06:34.057Z,102004.97
2022-08-22T09:09:18.724Z,102004.69
2022-08-22T09:12:17.049Z,101990.13
2022-08-22T09:15:22.662Z,101999.06
2022-08-22T09:18:27.185Z,101992.22
2022-08-22T09:21:39.408Z,101989.09
2022-08-22T09:24:38.086Z,102002.47
2022-08-22T09:27:16.086Z,101995.81
2022-08-22T09:29:54.787Z,101994.47
2022-08-22T09:32:33.766Z,102012.38
2022-08-22T09:35:08.948Z,102001.50
2022-08-22T09:37:46.658Z,102017.06
2022-08-22T09:43:06.538Z,102007.66
2022-08-22T09:45:50.029Z,102021.31
2022-08-22T09:48:34.434Z,102008.34
2022-08-22T09:51:32.676Z,102001.53
2022-08-22T09:54:23.486Z,101989.28
2022-08-22T09:57:01.097Z,101992.34
2022-08-22T09:59:44.866Z,102008.97
2022-08-22T10:02:28.667Z,102022.94
2022-08-22T10:05:04.160Z,102034.59
2022-08-22T10:07:41.120Z,102052.72
2022-08-22T10:10:23.376Z,102069.41
2022-08-22T10:13:04.736Z,102065.41
2022-08-22T10:15:43.375Z,102063.53
2022-08-22T10:18:24.687Z,102047.22
2022-08-22T10:21:12.992Z,102042.31
2022-08-22T10:23:48.291Z,102035.59
2022-08-22T10:26:35.250Z,102050.94
2022-08-22T10:29:31.743Z,102126.47
2022-08-22T10:32:14.427Z,102214.63
2022-08-22T10:34:49.055Z,102291.69
2022-08-22T10:37:30.516Z,102378.97
2022-08-22T10:40:06.312Z,102431.31
2022-08-22T10:42:37.630Z,102450.34
2022-08-22T10:45:35.781Z,102458.44
2022-08-22T10:48:35.563Z,102465.34
2022-08-22T10:51:20.872Z,102465.00
2022-08-22T10:54:12.943Z,102460.03
2022-08-22T10:56:55.643Z,102507.38
2022-08-22T10:59:38.049Z,102551.38
2022-08-22T11:02:30.547Z,102587.69
2022-08-22T11:05:24.734Z,102615.59
2022-08-22T11:08:08.800Z,102632.03
2022-08-22T11:10:52.585Z,102632.22
2022-08-22T11:13:30.934Z,102644.34
2022-08-22T11:16:22.917Z,102654.22
2022-08-22T11:19:15.318Z,102670.91
2022-08-22T11:21:57.105Z,102684.38
2022-08-22T11:25:12.067Z,102704.25
2022-08-22T11:27:52.975Z,102702.25
2022-08-22T11:30:29.829Z,102706.69
2022-08-22T11:33:32.487Z,102699.78
2022-08-22T11:36:30.898Z,102701.59
2022-08-22T11:39:09.893Z,102700.97
2022-08-22T11:41:56.155Z,102700.28
2022-08-22T11:44:31.285Z,102704.53
2022-08-22T11:47:02.944Z,102709.84
2022-08-22T11:49:40.422Z,102712.41
2022-08-22T11:52:23.922Z,102724.44
2022-08-22T11:55:17.789Z,102723.28
2022-08-22T11:57:48.854Z,102735.16
2022-08-22T12:00:25.313Z,102727.75
2022-08-22T12:03:35.480Z,102740.41
2022-08-22T12:06:09.691Z,102736.59
2022-08-22T12:09:25.028Z,102735.81
2022-08-22T12:12:04.709Z,102739.00
2022-08-22T12:14:42.850Z,102735.69
2022-08-22T12:17:50.803Z,102714.63
2022-08-22T12:20:29.256Z,102711.34
2022-08-22T12:23:20.918Z,102706.78
2022-08-22T12:26:05.004Z,102704.13
2022-08-22T12:28:53.807Z,102702.41
2022-08-22T12:31:34.050Z,102695.19
2022-08-22T12:34:21.525Z,102696.69
2022-08-22T12:37:00.755Z,102699.22
2022-08-22T12:39:53.809Z,102694.88
2022-08-22T12:42:46.079Z,102689.56
2022-08-22T12:45:33.561Z,102677.03
2022-08-22T12:48:25.025Z,102666.28
2022-08-22T12:50:59.761Z,102670.53
2022-08-22T12:53:55.838Z,102669.91
2022-08-22T12:56:34.540Z,102669.91
2022-08-22T12:59:24.123Z,102617.84
2022-08-22T13:01:55.883Z,102596.59
2022-08-22T13:04:33.493Z,102598.28
2022-08-22T13:07:18.398Z,102590.84
2022-08-22T13:09:50.013Z,102591.38
2022-08-22T13:12:28.226Z,102590.81
2022-08-22T13:15:02.768Z,102579.78
2022-08-22T13:17:32.457Z,102568.94
2022-08-22T13:20:11.586Z,102568.41
2022-08-22T13:22:45.703Z,102559.47
2022-08-22T13:25:25.620Z,102549.78
2022-08-22T13:27:56.276Z,102551.28
2022-08-22T13:30:31.709Z,102547.66
2022-08-22T13:33:09.856Z,102542.53
2022-08-22T13:35:45.566Z,102542.34
2022-08-22T13:38:25.849Z,102550.94
2022-08-22T13:40:56.835Z,102556.91
2022-08-22T13:43:28.032Z,102547.84
2022-08-22T13:45:59.221Z,102545.81
2022-08-22T13:48:47.156Z,102543.13
2022-08-22T13:51:24.887Z,102545.06
2022-08-22T13:54:02.216Z,102537.13
2022-08-22T13:56:43.003Z,102536.16
2022-08-22T13:59:49.190Z,102544.19
2022-08-22T14:02:30.953Z,102559.81
2022-08-22T14:05:06.701Z,102583.84
2022-08-22T14:07:38.965Z,102615.28
2022-08-22T14:10:12.551Z,102632.50
2022-08-22T14:12:51.270Z,102654.31
2022-08-22T14:15:24.622Z,102653.69
2022-08-22T14:17:56.973Z,102660.81
2022-08-22T14:20:33.565Z,102651.38
2022-08-22T14:23:08.689Z,102631.13
2022-08-22T14:25:39.127Z,102608.94
2022-08-22T14:28:09.837Z,102595.47
2022-08-22T14:30:59.365Z,102578.94
2022-08-22T14:33:35.091Z,102527.09
2022-08-22T14:36:17.200Z,102521.69
2022-08-22T14:38:51.130Z,102491.91
2022-08-22T14:41:52.758Z,102493.50
2022-08-22T14:44:23.488Z,102474.13
2022-08-22T14:46:56.246Z,102458.34
2022-08-22T14:49:49.723Z,102438.88
2022-08-22T14:52:48.477Z,102444.19
2022-08-22T14:55:21.468Z,102468.22
2022-08-22T14:57:54.847Z,102489.66
2022-08-22T15:00:34.132Z,102506.34
2022-08-22T15:03:17.149Z,102536.66
2022-08-22T15:05:50.772Z,102560.63
2022-08-22T15:08:27.660Z,102584.78
2022-08-22T15:11:19.413Z,102612.09
2022-08-22T15:13:54.380Z,102611.00
2022-08-22T15:16:25.729Z,102606.53
2022-08-22T15:18:54.558Z,102613.38
2022-08-22T15:21:25.723Z,102628.78
2022-08-22T15:23:59.622Z,102632.66
2022-08-22T15:26:31.079Z,102651.75
2022-08-22T15:29:06.972Z,102670.06
2022-08-22T15:31:35.588Z,102682.56
2022-08-22T15:34:11.882Z,102680.25
2022-08-22T15:37:09.825Z,102691.06
2022-08-22T15:40:03.039Z,102693.34
2022-08-22T15:42:37.522Z,102682.31
2022-08-22T15:45:07.018Z,102680.09
2022-08-22T15:47:39.759Z,102686.84
2022-08-22T15:50:14.777Z,102696.59
2022-08-22T15:53:19.833Z,102708.13
2022-08-22T15:56:23.785Z,102713.28
2022-08-22T15:59:47.988Z,102740.03
2022-08-22T16:02:31.561Z,102774.09
2022-08-22T16:05:23.591Z,102796.38
2022-08-22T16:08:02.723Z,102805.53
2022-08-22T16:10:34.324Z,102816.31
2022-08-22T16:13:16.870Z,102817.28
2022-08-22T16:16:02.707Z,102811.47
2022-08-22T16:19:15.413Z,102806.25
2022-08-22T16:22:12.140Z,102786.19
2022-08-22T16:25:00.700Z,102760.03
2022-08-22T16:27:29.105Z,102743.31
2022-08-22T16:30:06.902Z,102728.47
2022-08-22T16:32:37.398Z,102717.88
2022-08-22T16:35:05.887Z,102700.22
2022-08-22T16:37:48.905Z,102699.22
2022-08-22T16:40:22.665Z,102688.53
2022-08-22T16:43:07.280Z,102683.16
2022-08-22T16:45:39.036Z,102672.63
2022-08-22T16:48:26.748Z,102664.19
2022-08-22T16:51:19.124Z,102659.94
2022-08-22T16:54:34.886Z,102653.19
2022-08-22T16:57:09.514Z,102646.34
2022-08-22T17:00:32.289Z,102647.31
2022-08-22T17:03:11.720Z,102631.09
2022-08-22T17:05:54.423Z,102620.69
2022-08-22T17:08:51.468Z,102603.31
2022-08-22T17:11:32.671Z,102551.41
2022-08-22T17:14:32.742Z,102502.97
2022-08-22T17:17:16.003Z,102469.41
2022-08-22T17:19:59.013Z,102405.75
2022-08-22T17:22:34.003Z,102339.13
2022-08-22T17:25:18.677Z,102290.66
2022-08-22T17:27:53.779Z,102249.06
2022-08-22T17:30:27.430Z,102206.97
2022-08-22T17:33:11.558Z,102149.16
2022-08-22T17:35:59.081Z,102079.28
2022-08-22T17:38:46.630Z,101972.34
2022-08-22T17:41:32.484Z,101895.63
2022-08-22T17:44:14.004Z,101810.63
2022-08-22T17:46:51.325Z,101695.41
2022-08-22T17:49:34.874Z,101661.38
2022-08-22T17:52:10.828Z,101618.47
2022-08-22T17:54:47.887Z,101609.78
2022-08-22T17:57:28.223Z,101529.81
2022-08-22T18:00:00.744Z,101515.88
2022-08-22T18:02:33.660Z,101552.13
2022-08-22T18:05:06.962Z,101524.94
2022-08-22T18:07:47.041Z,101509.22
2022-08-22T18:10:29.109Z,101486.41
2022-08-22T18:13:06.864Z,101480.25
2022-08-22T18:15:42.957Z,101468.53
2022-08-22T18:18:21.171Z,101400.56
2022-08-22T18:20:53.965Z,101229.34
2022-08-22T18:23:36.288Z,101205.56
2022-08-22T18:26:21.871Z,101189.38
2022-08-22T18:28:55.434Z,101175.56
2022-08-22T18:31:38.407Z,101169.78
2022-08-22T18:34:15.446Z,101174.94
2022-08-22T18:36:51.666Z,101203.91
2022-08-22T18:39:27.132Z,101190.94
2022-08-22T18:42:05.576Z,101203.53
2022-08-22T18:44:39.906Z,101197.63
2022-08-22T18:47:15.108Z,101208.19
2022-08-22T18:49:53.909Z,101221.41
2022-08-22T18:52:38.874Z,101230.16
2022-08-22T18:55:39.645Z,101236.53
2022-08-22T18:58:42.903Z,101239.53
2022-08-22T19:01:41.322Z,101227.41
2022-08-22T19:04:25.418Z,101232.78
2022-08-22T19:07:12.171Z,101248.53
2022-08-22T19:09:56.333Z,101256.44
2022-08-22T19:12:42.983Z,101253.81
2022-08-22T19:15:31.353Z,101302.19
2022-08-22T19:18:42.730Z,101315.72
2022-08-22T19:21:44.328Z,101314.38
2022-08-22T19:24:29.758Z,101324.44
2022-08-22T19:27:31.142Z,101324.56
2022-08-22T19:30:02.482Z,101326.47
2022-08-22T19:33:06.612Z,101335.84
2022-08-22T19:35:47.175Z,101348.44
2022-08-22T19:38:53.372Z,101345.56
2022-08-22T19:41:45.378Z,101345.47
2022-08-22T19:44:34.507Z,101358.41
2022-08-22T19:47:09.339Z,101378.53
2022-08-22T19:49:41.423Z,101394.16
2022-08-22T19:52:25.052Z,101415.28
2022-08-22T19:55:02.270Z,101434.41
2022-08-22T19:57:42.998Z,101456.97
2022-08-22T20:00:14.936Z,101484.97
2022-08-22T20:02:57.407Z,101526.16
2022-08-22T20:05:33.322Z,101549.19
2022-08-22T20:08:40.888Z,101569.47
2022-08-22T20:11:19.837Z,101599.50
2022-08-22T20:13:48.641Z,101601.16
2022-08-22T20:16:21.262Z,101634.75
2022-08-22T20:19:11.771Z,101670.88
2022-08-22T20:21:58.058Z,101705.34
2022-08-22T20:24:39.789Z,101730.03
2022-08-22T20:27:15.477Z,101756.66
2022-08-22T20:29:49.164Z,101775.13
2022-08-22T20:32:20.301Z,101800.59
2022-08-22T20:34:52.076Z,101815.41
2022-08-22T20:37:35.958Z,101824.25
2022-08-22T20:40:56.058Z,101849.63
2022-08-22T20:43:21.245Z,101855.75
2022-08-22T20:46:01.551Z,101868.03
2022-08-22T20:48:37.444Z,101887.44
2022-08-22T20:51:06.904Z,101886.59
2022-08-22T20:53:35.540Z,101908.50
2022-08-22T20:56:08.085Z,101915.56
2022-08-22T20:58:39.997Z,101927.91
2022-08-22T21:01:11.731Z,101955.19
2022-08-22T21:03:44.488Z,101963.00
2022-08-22T21:06:15.244Z,101971.69
2022-08-22T21:08:45.642Z,101979.38
2022-08-22T21:11:40.675Z,101990.81
2022-08-22T21:14:23.978Z,102009.31
2022-08-22T21:16:53.140Z,102010.34
2022-08-22T21:19:26.477Z,102022.63
2022-08-22T21:21:55.116Z,102041.09
2022-08-22T21:24:23.110Z,102051.66
2022-08-22T21:26:57.934Z,102062.25
2022-08-22T21:29:34.016Z,102073.56
2022-08-22T21:32:16.871Z,102076.38
2022-08-22T21:34:48.209Z,102090.44
2022-08-22T21:37:19.255Z,102102.78
2022-08-22T21:39:50.319Z,102102.78
2022-08-22T21:42:26.438Z,102112.50
2022-08-22T21:44:59.511Z,102115.25
2022-08-22T21:47:31.731Z,102122.63
2022-08-22T21:50:03.801Z,102129.78
2022-08-22T21:52:34.859Z,102136.09
2022-08-22T21:55:26.719Z,102142.41
2022-08-22T21:58:13.418Z,102136.47
2022-08-22T22:01:03.995Z,102144.47
2022-08-22T22:03:36.822Z,102136.66
2022-08-22T22:06:06.680Z,102132.31
2022-08-22T22:08:34.951Z,102133.28
2022-08-22T22:11:06.160Z,102137.59
2022-08-22T22:13:38.257Z,102156.94
2022-08-22T22:16:07.768Z,102161.34
2022-08-22T22:18:37.501Z,102173.81
2022-08-22T22:21:06.385Z,102186.31
2022-08-22T22:23:34.350Z,102193.47
2022-08-22T22:26:04.325Z,102196.13
2022-08-22T22:28:35.511Z,102203.09
2022-08-22T22:31:06.041Z,102204.03
2022-08-22T22:33:37.202Z,102196.88
2022-08-22T22:36:08.908Z,102202.25
2022-08-22T22:38:38.038Z,102203.94
2022-08-22T22:41:06.120Z,102196.13
2022-08-22T22:43:34.723Z,102196.13
2022-08-22T22:46:04.120Z,102192.63
2022-08-22T22:48:32.619Z,102199.59
2022-08-22T22:51:00.550Z,102199.50
2022-08-22T22:53:38.403Z,102205.63
2022-08-22T22:56:11.717Z,102217.94
2022-08-22T22:58:40.022Z,102213.50
2022-08-22T23:01:11.856Z,102206.50
2022-08-22T23:03:40.105Z,102205.50
2022-08-22T23:06:12.220Z,102200.22
2022-08-22T23:08:40.360Z,102206.34
2022-08-22T23:11:12.638Z,102212.50
2022-08-22T23:13:42.889Z,102223.06
2022-08-22T23:16:15.577Z,102232.66
2022-08-22T23:18:44.525Z,102253.72
2022-08-22T23:21:14.410Z,102269.56
2022-08-22T23:23:42.491Z,102280.13
2022-08-22T23:26:11.520Z,102300.28
2022-08-22T23:28:40.041Z,102313.47
2022-08-22T23:31:14.989Z,102325.94
2022-08-22T23:33:43.463Z,102333.09
2022-08-22T23:36:13.717Z,102341.16
2022-08-22T23:38:41.891Z,102335.13
2022-08-22T23:41:12.045Z,102341.34
2022-08-22T23:43:43.367Z,102344.84
2022-08-22T23:46:11.437Z,102352.81
2022-08-22T23:48:41.160Z,102350.19
2022-08-22T23:51:10.599Z,102343.97
2022-08-22T23:53:39.471Z,102354.53
2022-08-22T23:56:19.895Z,102353.59
2022-08-22T23:58:49.141Z,102363.22
